Time;durP1;ratioP1;P1;durP2;ratioP2;P2;SDS_P1;SDS_P2;PMS_P1;PMS_P2;Temp;Humidity;BMP_temperature;BMP_pressure;BME280_temperature;BME280_humidity;BME280_pressure;Samples;Min_cycle;Max_cycle;Signal;HPM_P1;HPM_P2
2023/07/18 00:00:18;;;;;;;13.07;7.25;;;;;;;13.60;79.05;101569.66;682483;29;1021;-77
2023/07/18 00:00:39;;;;;;;12.15;6.68;;;;;;;13.74;78.72;101570.03;685268;28;2044;-77
2023/07/18 00:00:59;;;;;;;12.63;6.32;;;;;;;13.90;78.63;101587.97;687760;28;1023;-77
2023/07/18 00:01:20;;;;;;;9.67;5.70;;;;;;;13.86;78.04;101567.78;685136;28;1137;-77
2023/07/18 00:01:41;;;;;;;8.57;5.47;;;;;;;13.94;77.94;101583.72;682420;28;1326;-77
2023/07/18 00:02:03;;;;;;;8.18;5.40;;;;;;;13.94;77.57;101565.34;679933;29;1382;-77
2023/07/18 00:02:24;;;;;;;8.07;5.25;;;;;;;13.98;77.46;101583.88;679856;29;914;-77
2023/07/18 00:02:45;;;;;;;8.38;5.18;;;;;;;14.04;77.51;101582.22;685279;28;917;-77
2023/07/18 00:03:06;;;;;;;7.57;5.18;;;;;;;13.95;77.13;101570.63;682396;28;1091;-77
2023/07/18 00:03:28;;;;;;;7.68;5.25;;;;;;;13.95;77.27;101573.25;687730;28;1201;-76
2023/07/18 00:03:49;;;;;;;9.30;5.60;;;;;;;13.94;76.90;101571.50;685100;28;981;-77
2023/07/18 00:04:10;;;;;;;11.20;5.43;;;;;;;13.92;77.26;101564.41;682032;29;1104;-77
2023/07/18 00:04:30;;;;;;;11.23;5.30;;;;;;;13.93;77.16;101569.72;685006;28;1173;-77
2023/07/18 00:04:52;;;;;;;10.30;5.33;;;;;;;13.93;77.16;101563.56;684666;28;1398;-78
2023/07/18 00:05:13;;;;;;;8.25;5.32;;;;;;;13.97;77.01;101568.94;687637;28;981;-77
2023/07/18 00:05:35;;;;;;;7.72;5.20;;;;;;;14.04;76.84;101584.84;681879;28;1191;-77
2023/07/18 00:05:56;;;;;;;8.85;5.22;;;;;;;13.96;76.87;101572.41;682343;28;1298;-77
2023/07/18 00:06:18;;;;;;;9.67;5.10;;;;;;;14.03;76.82;101588.31;687690;28;1156;-77
2023/07/18 00:06:41;;;;;;;9.63;4.90;;;;;;;14.00;77.11;101577.75;684524;28;1137;-77
2023/07/18 00:07:02;;;;;;;9.77;4.80;;;;;;;14.00;76.79;101578.63;682461;29;1033;-77
2023/07/18 00:07:23;;;;;;;9.20;4.72;;;;;;;13.98;76.71;101578.63;679933;29;1355;-77
2023/07/18 00:07:44;;;;;;;8.90;5.10;;;;;;;13.94;76.84;101568.88;687799;28;1275;-78
2023/07/18 00:08:05;;;;;;;8.27;5.00;;;;;;;13.97;76.53;101575.94;685045;28;1034;-78
2023/07/18 00:08:25;;;;;;;7.63;4.70;;;;;;;13.92;76.59;101562.69;684928;28;1429;-77
2023/07/18 00:08:46;;;;;;;8.50;4.50;;;;;;;13.96;76.50;101572.41;684041;28;1045;-77
2023/07/18 00:09:08;;;;;;;8.38;4.75;;;;;;;13.92;76.61;101567.94;686740;28;1084;-77
2023/07/18 00:09:29;;;;;;;8.98;4.97;;;;;;;13.95;76.72;101577.66;682195;28;1280;-77
2023/07/18 00:09:50;;;;;;;8.00;5.00;;;;;;;13.95;76.60;101572.41;690544;28;1225;-77
2023/07/18 00:10:11;;;;;;;7.78;5.13;;;;;;;13.93;76.64;101574.06;685130;28;1162;-77
2023/07/18 00:10:32;;;;;;;8.60;5.60;;;;;;;13.98;76.60;101580.34;684976;28;1065;-77
2023/07/18 00:10:53;;;;;;;8.75;5.50;;;;;;;13.97;76.74;101586.44;680024;29;1330;-77
2023/07/18 00:11:13;;;;;;;10.73;5.45;;;;;;;13.93;77.08;101579.31;685007;28;1295;-77
2023/07/18 00:11:34;;;;;;;9.47;5.00;;;;;;;13.83;76.67;101573.81;687706;28;1110;-77
2023/07/18 00:11:56;;;;;;;9.98;5.50;;;;;;;13.78;77.27;101585.03;686144;28;1901;-77
2023/07/18 00:12:16;;;;;;;9.98;5.93;;;;;;;13.69;77.50;101565.56;679874;29;1033;-77
2023/07/18 00:12:38;;;;;;;10.18;6.10;;;;;;;13.66;77.51;101575.97;685032;28;966;-77
2023/07/18 00:12:59;;;;;;;11.55;6.60;;;;;;;13.65;78.16;101574.19;685042;28;1035;-77
2023/07/18 00:13:20;;;;;;;10.70;6.60;;;;;;;13.62;78.18;101568.88;685089;28;1078;-77
2023/07/18 00:13:41;;;;;;;11.90;6.73;;;;;;;13.63;78.31;101575.88;687769;28;1094;-78
2023/07/18 00:14:01;;;;;;;10.70;6.55;;;;;;;13.61;78.32;101584.56;685065;28;1109;-77
2023/07/18 00:14:23;;;;;;;11.68;6.65;;;;;;;13.57;78.30;101580.97;682320;29;973;-78
2023/07/18 00:14:43;;;;;;;11.43;6.90;;;;;;;13.57;78.78;101583.56;690526;28;1467;-77
2023/07/18 00:15:06;;;;;;;11.60;6.87;;;;;;;13.55;78.74;101587.91;682335;28;1277;-77
2023/07/18 00:15:26;;;;;;;10.82;6.90;;;;;;;13.51;78.88;101570.31;681841;29;1050;-76
2023/07/18 00:15:47;;;;;;;10.40;6.70;;;;;;;13.51;79.12;101575.56;684436;28;1086;-76
2023/07/18 00:16:08;;;;;;;10.03;6.50;;;;;;;13.56;78.75;101571.31;687861;28;973;-77
2023/07/18 00:16:29;;;;;;;9.90;6.75;;;;;;;13.52;78.76;101566.84;687763;28;1056;-77
2023/07/18 00:16:50;;;;;;;10.90;7.00;;;;;;;13.56;78.77;101573.94;692922;28;1037;-77
2023/07/18 00:17:10;;;;;;;11.50;6.97;;;;;;;13.62;78.98;101587.22;689263;28;1063;-77
2023/07/18 00:17:32;;;;;;;12.85;6.80;;;;;;;13.58;79.05;101572.25;682509;28;1224;-77
2023/07/18 00:17:53;;;;;;;12.27;6.70;;;;;;;13.57;78.77;101575.72;685059;28;1384;-77
2023/07/18 00:18:14;;;;;;;12.55;7.00;;;;;;;13.63;78.73;101583.75;687799;28;1059;-77
2023/07/18 00:18:35;;;;;;;12.65;7.15;;;;;;;13.61;78.88;101577.59;693034;28;1157;-77
2023/07/18 00:18:56;;;;;;;11.90;6.70;;;;;;;13.54;78.41;101573.00;687885;28;1064;-77
2023/07/18 00:19:17;;;;;;;10.85;6.35;;;;;;;13.54;78.95;101576.50;685192;28;1134;-77
2023/07/18 00:19:39;;;;;;;9.20;6.50;;;;;;;13.52;78.63;101572.09;690503;28;1084;-77
2023/07/18 00:20:01;;;;;;;9.98;6.78;;;;;;;13.52;78.58;101572.09;690430;28;1279;-76
2023/07/18 00:20:23;;;;;;;10.50;7.22;;;;;;;13.47;78.62;101568.44;687564;28;1022;-77
2023/07/18 00:20:43;;;;;;;10.10;7.20;;;;;;;13.44;79.11;101566.59;687431;28;966;-76
2023/07/18 00:21:05;;;;;;;9.93;6.80;;;;;;;13.47;79.05;101571.97;684214;28;965;-77
2023/07/18 00:21:26;;;;;;;10.60;6.70;;;;;;;13.45;79.04;101564.88;682378;29;997;-77
2023/07/18 00:21:47;;;;;;;12.00;6.72;;;;;;;13.54;78.73;101588.75;679817;29;1016;-77
2023/07/18 00:22:08;;;;;;;12.23;6.93;;;;;;;13.36;79.08;101571.66;679787;29;1029;-77
2023/07/18 00:22:28;;;;;;;10.90;7.03;;;;;;;13.35;79.20;101566.34;679848;29;1101;-77
2023/07/18 00:22:50;;;;;;;12.60;7.30;;;;;;;13.28;79.45;101558.28;683042;28;945;-77
2023/07/18 00:23:11;;;;;;;13.15;7.60;;;;;;;13.28;79.54;101562.66;684960;28;1892;-77
2023/07/18 00:23:32;;;;;;;13.60;7.53;;;;;;;13.25;79.50;101558.22;682310;28;1006;-77
2023/07/18 00:23:52;;;;;;;11.75;7.50;;;;;;;13.25;79.54;101568.69;687923;28;783;-77
2023/07/18 00:24:13;;;;;;;11.45;7.38;;;;;;;13.28;79.96;101568.78;682280;28;1057;-77
2023/07/18 00:24:33;;;;;;;10.50;7.17;;;;;;;13.28;80.02;101563.53;687602;28;1016;-76
2023/07/18 00:24:54;;;;;;;11.68;7.30;;;;;;;13.26;79.88;101564.31;687391;28;1299;-77
2023/07/18 00:25:19;;;;;;;11.23;7.22;;;;;;;13.23;79.74;101557.28;685044;28;1386;-77
2023/07/18 00:25:40;;;;;;;12.55;7.30;;;;;;;13.29;79.96;101567.06;684430;28;909;-77
2023/07/18 00:26:08;;;;;;;14.50;7.00;;;;;;;13.28;79.85;101560.03;682380;28;1325;-77
2023/07/18 00:26:29;;;;;;;15.30;6.90;;;;;;;13.26;79.96;101567.84;685090;28;1302;-76
2023/07/18 00:26:50;;;;;;;12.38;6.50;;;;;;;13.27;80.15;101564.38;679766;29;1181;-77
2023/07/18 00:27:11;;;;;;;12.98;7.03;;;;;;;13.33;80.21;101571.53;684917;28;1285;-77
2023/07/18 00:27:31;;;;;;;13.23;6.90;;;;;;;13.33;80.14;101568.91;690379;28;1278;-77
2023/07/18 00:27:53;;;;;;;13.90;7.03;;;;;;;13.33;80.35;101566.28;685469;28;1262;-77
2023/07/18 00:28:14;;;;;;;11.48;6.80;;;;;;;13.33;80.02;101566.28;682363;28;1312;-77
2023/07/18 00:28:37;;;;;;;9.88;6.80;;;;;;;13.30;79.89;101563.59;680141;28;1184;-77
2023/07/18 00:28:58;;;;;;;10.13;6.97;;;;;;;13.36;80.19;101576.88;685086;28;1162;-77
2023/07/18 00:29:19;;;;;;;10.80;6.75;;;;;;;13.38;80.36;101583.06;685024;28;1140;-77
2023/07/18 00:29:39;;;;;;;10.35;6.82;;;;;;;13.30;80.31;101566.22;684836;28;1197;-77
2023/07/18 00:30:00;;;;;;;10.47;6.87;;;;;;;13.34;80.13;101573.31;685152;28;945;-77
2023/07/18 00:30:21;;;;;;;10.70;6.88;;;;;;;13.31;80.38;101568.00;684820;28;1098;-77
2023/07/18 00:30:42;;;;;;;10.93;6.40;;;;;;;13.42;80.37;101576.16;679796;29;892;-77
2023/07/18 00:31:22;;;;;;;11.07;6.75;;;;;;;13.37;80.23;101573.41;679849;29;971;-77
2023/07/18 00:31:42;;;;;;;15.88;7.60;;;;;;;13.37;80.51;101568.16;682391;29;974;-77
2023/07/18 00:32:03;;;;;;;15.97;7.40;;;;;;;13.41;80.33;101579.63;682273;29;1891;-77
2023/07/18 00:32:24;;;;;;;12.13;7.10;;;;;;;13.42;80.20;101582.28;682785;28;1545;-77
2023/07/18 00:32:45;;;;;;;9.53;6.67;;;;;;;13.36;80.35;101566.41;682367;28;1149;-77
2023/07/18 00:33:06;;;;;;;11.40;6.95;;;;;;;13.34;80.27;101565.44;685006;28;1084;-77
2023/07/18 00:33:26;;;;;;;12.30;7.00;;;;;;;13.40;80.29;101573.50;682360;28;1109;-77
2023/07/18 00:33:47;;;;;;;14.18;7.32;;;;;;;13.34;80.19;101568.06;682451;28;986;-77
2023/07/18 00:34:08;;;;;;;11.40;7.13;;;;;;;13.35;80.28;101571.59;685104;28;1117;-77
2023/07/18 00:34:29;;;;;;;11.60;7.22;;;;;;;13.32;80.18;101559.28;687697;28;1503;-76
2023/07/18 00:34:50;;;;;;;11.53;7.60;;;;;;;13.35;80.09;101568.97;685529;28;1141;-76
2023/07/18 00:35:12;;;;;;;11.30;7.40;;;;;;;13.40;80.47;101583.09;682282;28;1248;-77
2023/07/18 00:35:34;;;;;;;13.57;7.30;;;;;;;13.38;80.32;101575.19;684642;28;1251;-77
2023/07/18 00:35:54;;;;;;;13.30;7.03;;;;;;;13.38;80.23;101577.81;687786;28;1260;-77
2023/07/18 00:36:16;;;;;;;13.40;6.80;;;;;;;13.32;80.53;101559.28;687836;28;965;-77
2023/07/18 00:36:38;;;;;;;11.05;6.97;;;;;;;13.32;80.24;101564.50;690325;28;1079;-77
2023/07/18 00:36:59;;;;;;;11.10;7.00;;;;;;;13.32;80.34;101564.50;685046;28;1132;-77
2023/07/18 00:37:20;;;;;;;10.15;6.90;;;;;;;13.38;80.12;101580.44;682364;29;1010;-77
2023/07/18 00:37:42;;;;;;;11.52;7.03;;;;;;;13.32;80.20;101569.75;684996;28;1251;-77
2023/07/18 00:38:02;;;;;;;11.40;6.90;;;;;;;13.31;80.13;101557.50;684982;28;1029;-77
2023/07/18 00:38:23;;;;;;;12.07;6.88;;;;;;;13.38;80.19;101569.03;685083;28;1010;-77
2023/07/18 00:39:07;;;;;;;10.43;6.63;;;;;;;13.40;79.99;101578.72;690400;28;1008;-77
2023/07/18 00:39:47;;;;;;;18.63;7.28;;;;;;;13.34;80.20;101569.81;687998;28;980;-76
2023/07/18 00:40:10;;;;;;;16.67;7.53;;;;;;;13.25;80.19;101555.59;687697;28;1073;-78
2023/07/18 00:40:31;;;;;;;12.73;7.53;;;;;;;13.32;80.32;101572.38;689420;28;1087;-77
2023/07/18 00:40:52;;;;;;;11.30;7.70;;;;;;;13.32;80.10;101571.50;685024;28;785;-77
2023/07/18 00:41:12;;;;;;;10.83;7.30;;;;;;;13.29;80.25;101559.19;685317;28;1375;-77
2023/07/18 00:41:33;;;;;;;10.52;7.20;;;;;;;13.26;80.38;101554.75;684464;28;1128;-77
2023/07/18 00:41:55;;;;;;;11.15;6.93;;;;;;;13.28;80.35;101560.03;687847;28;844;-77
2023/07/18 00:42:15;;;;;;;11.27;7.03;;;;;;;13.28;80.29;101560.03;679735;28;1060;-76
2023/07/18 00:42:45;;;;;;;11.55;6.90;;;;;;;13.32;80.52;101566.25;682418;28;1117;-77
2023/07/18 00:43:13;;;;;;;11.95;6.95;;;;;;;13.32;80.33;101563.66;682369;29;1042;-77
2023/07/18 00:43:35;;;;;;;12.02;7.50;;;;;;;13.27;80.44;101550.41;682069;28;1033;-77
2023/07/18 00:43:57;;;;;;;11.18;7.35;;;;;;;13.27;80.38;101545.16;684855;28;957;-77
2023/07/18 00:44:18;;;;;;;11.20;7.23;;;;;;;13.32;80.68;101558.41;687714;28;1203;-77
2023/07/18 00:44:38;;;;;;;11.23;7.05;;;;;;;13.28;80.42;101554.81;686661;28;1281;-77
2023/07/18 00:44:59;;;;;;;13.15;7.65;;;;;;;13.28;80.63;101553.06;690636;28;1176;-77
2023/07/18 00:45:20;;;;;;;13.35;7.70;;;;;;;13.30;80.50;101560.97;690363;28;1031;-77
2023/07/18 00:45:46;;;;;;;13.43;8.20;;;;;;;13.31;80.40;101557.50;684931;28;1047;-77
2023/07/18 00:46:09;;;;;;;12.38;8.00;;;;;;;13.28;80.54;101546.94;684231;28;1474;-77
2023/07/18 00:46:31;;;;;;;11.98;7.82;;;;;;;13.33;80.59;101560.19;684925;28;1128;-77
2023/07/18 00:46:52;;;;;;;12.38;7.40;;;;;;;13.36;80.56;101565.50;684802;28;1269;-77
2023/07/18 00:47:13;;;;;;;13.23;7.13;;;;;;;13.29;80.49;101559.19;687588;28;1071;-77
2023/07/18 00:47:40;;;;;;;13.43;7.40;;;;;;;13.28;80.27;101552.19;684793;28;1076;-76
2023/07/18 00:48:00;;;;;;;10.88;7.60;;;;;;;13.29;80.38;101546.09;684916;28;984;-76
2023/07/18 00:48:21;;;;;;;10.65;7.43;;;;;;;13.30;80.33;101551.34;684864;28;1244;-77
2023/07/18 00:48:42;;;;;;;11.73;7.70;;;;;;;13.29;80.56;101551.34;684899;28;1060;-76
2023/07/18 00:49:04;;;;;;;13.52;7.88;;;;;;;13.31;80.40;101552.25;687522;28;1001;-77
2023/07/18 00:49:25;;;;;;;13.98;7.90;;;;;;;13.25;80.26;101552.06;687527;28;1114;-77
2023/07/18 00:49:46;;;;;;;13.50;7.65;;;;;;;13.32;80.65;101559.28;682216;28;1436;-77
2023/07/18 00:50:09;;;;;;;11.55;7.20;;;;;;;13.25;80.59;101544.22;682263;29;1099;-76
2023/07/18 00:50:30;;;;;;;10.57;7.10;;;;;;;13.23;80.14;101549.44;684891;28;1724;-77
2023/07/18 00:50:50;;;;;;;9.65;6.90;;;;;;;13.25;80.36;101546.81;684878;28;1063;-77
2023/07/18 00:51:11;;;;;;;9.82;6.97;;;;;;;13.26;80.41;101554.75;687574;28;1198;-77
2023/07/18 00:51:34;;;;;;;10.27;6.93;;;;;;;13.25;80.19;101552.97;687449;28;1270;-77
2023/07/18 00:51:56;;;;;;;10.70;6.93;;;;;;;13.26;80.40;101559.09;685204;28;791;-77
2023/07/18 00:52:17;;;;;;;11.02;7.30;;;;;;;13.24;80.27;101553.81;682375;29;1081;-77
2023/07/18 00:52:43;;;;;;;11.33;7.30;;;;;;;13.30;80.60;101566.22;682172;29;1085;-78
2023/07/18 00:53:04;;;;;;;11.48;7.50;;;;;;;13.22;80.16;101555.47;684982;28;1096;-77
2023/07/18 00:53:25;;;;;;;12.00;7.57;;;;;;;13.21;80.44;101550.22;687786;28;1060;-77
2023/07/18 00:53:46;;;;;;;12.18;7.60;;;;;;;13.28;80.42;101557.44;685071;28;960;-77
2023/07/18 00:54:07;;;;;;;12.85;7.18;;;;;;;13.23;80.20;101556.38;685651;28;1030;-77
2023/07/18 00:54:28;;;;;;;12.73;7.20;;;;;;;13.22;80.41;101555.47;684766;28;1186;-77
2023/07/18 00:54:49;;;;;;;13.77;7.50;;;;;;;13.22;80.57;101552.00;684609;28;1045;-77
2023/07/18 00:55:11;;;;;;;13.15;7.60;;;;;;;13.22;80.40;101554.63;682456;28;1160;-77
2023/07/18 00:55:32;;;;;;;11.55;7.10;;;;;;;13.25;80.38;101557.31;681946;29;1361;-77
2023/07/18 00:55:55;;;;;;;10.68;7.00;;;;;;;13.26;80.36;101557.38;682380;29;913;-76
2023/07/18 00:56:16;;;;;;;12.85;7.07;;;;;;;13.23;80.51;101559.00;682430;28;1103;-77
2023/07/18 00:56:37;;;;;;;13.40;7.15;;;;;;;13.32;80.76;101569.75;683785;28;1001;-76
2023/07/18 00:56:58;;;;;;;13.30;7.00;;;;;;;13.25;80.41;101557.31;693350;28;1080;-76
2023/07/18 00:57:19;;;;;;;11.85;7.15;;;;;;;13.26;80.79;101553.84;684949;28;1123;-77
2023/07/18 00:57:41;;;;;;;11.60;7.20;;;;;;;13.22;80.77;101554.63;682404;29;1012;-77
2023/07/18 00:58:03;;;;;;;10.98;7.10;;;;;;;13.24;80.66;101556.44;679807;29;1228;-77
2023/07/18 00:58:24;;;;;;;9.85;6.72;;;;;;;13.26;80.72;101560.00;682395;28;1041;-77
2023/07/18 00:58:46;;;;;;;9.85;7.05;;;;;;;13.24;80.41;101558.16;679713;29;1006;-77
2023/07/18 00:59:08;;;;;;;11.80;6.95;;;;;;;13.24;80.52;101559.06;682227;29;1445;-77
2023/07/18 00:59:29;;;;;;;12.27;7.20;;;;;;;13.24;80.40;101561.69;682302;28;1000;-77
2023/07/18 00:59:51;;;;;;;14.43;7.25;;;;;;;13.27;80.39;101558.28;679772;29;1165;-77
2023/07/18 01:00:13;;;;;;;14.38;7.65;;;;;;;13.27;80.61;101571.38;684897;28;1047;-77
2023/07/18 01:00:33;;;;;;;14.95;7.80;;;;;;;13.21;80.48;101552.84;684745;28;1142;-77
2023/07/18 01:00:54;;;;;;;12.30;7.70;;;;;;;13.21;80.48;101558.94;685171;28;927;-76
2023/07/18 01:01:15;;;;;;;13.30;7.60;;;;;;;13.24;80.49;101556.44;688104;28;1182;-77
2023/07/18 01:01:36;;;;;;;15.47;7.73;;;;;;;13.22;80.14;101563.34;687511;28;1211;-76
2023/07/18 01:01:57;;;;;;;14.15;7.53;;;;;;;13.23;80.61;101559.91;682377;28;1284;-77
2023/07/18 01:02:18;;;;;;;14.73;7.53;;;;;;;13.20;80.52;101548.44;682631;28;1101;-77
2023/07/18 01:02:43;;;;;;;12.68;7.15;;;;;;;13.25;80.60;101557.31;684949;28;1118;-77
2023/07/18 01:03:04;;;;;;;12.95;7.13;;;;;;;13.29;80.56;101561.81;682317;29;1215;-76
2023/07/18 01:03:25;;;;;;;12.32;7.32;;;;;;;13.24;80.31;101563.41;685400;28;1194;-76
2023/07/18 01:03:45;;;;;;;12.13;7.43;;;;;;;13.21;80.50;101547.59;682450;28;1254;-76
2023/07/18 01:04:08;;;;;;;10.37;7.10;;;;;;;13.13;80.69;101543.00;684916;28;1192;-76
2023/07/18 01:04:29;;;;;;;12.32;6.70;;;;;;;13.20;80.63;101557.19;679584;29;1074;-76
2023/07/18 01:04:50;;;;;;;11.93;6.60;;;;;;;13.21;80.64;101555.47;679700;28;1056;-76
2023/07/18 01:05:16;;;;;;;12.32;6.95;;;;;;;13.21;80.73;101553.72;685087;28;1199;-77
2023/07/18 01:05:37;;;;;;;12.15;7.50;;;;;;;13.16;80.66;101544.84;681775;28;1485;-76
2023/07/18 01:05:58;;;;;;;12.15;7.53;;;;;;;13.15;80.74;101543.94;679609;29;1171;-76
2023/07/18 01:06:21;;;;;;;12.55;7.70;;;;;;;13.20;80.96;101554.56;684884;28;1254;-76
2023/07/18 01:06:42;;;;;;;12.73;7.80;;;;;;;13.11;80.68;101542.09;682220;28;1258;-77
2023/07/18 01:07:04;;;;;;;11.65;7.60;;;;;;;13.13;80.75;101548.25;682508;28;1111;-76
2023/07/18 01:07:25;;;;;;;10.30;7.15;;;;;;;13.21;80.76;101564.19;684936;28;1010;-76
2023/07/18 01:07:47;;;;;;;12.70;7.00;;;;;;;13.18;80.75;101560.59;689237;28;1141;-76
2023/07/18 01:08:07;;;;;;;13.07;7.13;;;;;;;13.10;80.75;101550.75;687648;28;948;-76
2023/07/18 01:08:28;;;;;;;13.00;6.93;;;;;;;13.19;80.76;101567.59;690335;28;1028;-76
2023/07/18 01:08:49;;;;;;;9.73;6.70;;;;;;;13.09;80.71;101554.22;687684;28;1248;-76
2023/07/18 01:09:10;;;;;;;9.95;6.63;;;;;;;13.05;80.96;101552.38;695399;28;1259;-76
2023/07/18 01:09:30;;;;;;;12.33;7.07;;;;;;;13.09;80.71;101554.22;687695;28;1782;-77
2023/07/18 01:09:53;;;;;;;13.70;7.40;;;;;;;13.15;80.88;101567.53;687865;28;806;-77
2023/07/18 01:10:14;;;;;;;12.93;7.40;;;;;;;13.18;80.89;101573.69;687625;28;1348;-76
2023/07/18 01:10:37;;;;;;;12.90;7.33;;;;;;;13.13;80.93;101560.47;687579;28;1032;-76
2023/07/18 01:10:58;;;;;;;12.25;7.20;;;;;;;13.08;80.84;101555.06;687714;28;1036;-76
2023/07/18 01:11:19;;;;;;;13.33;7.30;;;;;;;13.10;81.24;101561.25;689474;28;1190;-76
2023/07/18 01:11:41;;;;;;;12.45;7.40;;;;;;;13.09;81.00;101558.59;687770;28;882;-76
2023/07/18 01:12:02;;;;;;;14.70;7.70;;;;;;;13.08;81.20;101560.31;685853;28;1910;-76
2023/07/18 01:12:23;;;;;;;14.63;7.20;;;;;;;13.16;81.41;101569.31;682275;28;1045;-76
2023/07/18 01:12:45;;;;;;;14.75;7.50;;;;;;;13.11;80.96;101560.44;677355;29;993;-76
2023/07/18 01:13:06;;;;;;;13.55;7.43;;;;;;;13.13;80.92;101560.47;684879;28;1274;-76
2023/07/18 01:13:27;;;;;;;11.65;7.53;;;;;;;13.22;81.01;101578.19;687625;28;983;-77
2023/07/18 01:13:48;;;;;;;13.13;7.28;;;;;;;13.16;81.14;101565.81;690308;28;1202;-76
2023/07/18 01:14:09;;;;;;;12.02;6.97;;;;;;;13.14;81.08;101560.50;690299;28;1295;-76
2023/07/18 01:14:30;;;;;;;12.10;6.90;;;;;;;13.10;81.25;101553.38;690300;28;1849;-76
2023/07/18 01:14:51;;;;;;;10.35;7.20;;;;;;;13.14;81.10;101563.13;684817;28;1286;-76
2023/07/18 01:15:13;;;;;;;11.48;7.40;;;;;;;13.14;80.90;101564.84;682213;28;1205;-76
2023/07/18 01:15:34;;;;;;;12.65;7.57;;;;;;;13.21;80.94;101565.94;684455;28;1031;-76
2023/07/18 01:15:54;;;;;;;13.18;7.47;;;;;;;13.07;81.15;101553.31;687696;28;1255;-77
2023/07/18 01:16:15;;;;;;;11.88;7.40;;;;;;;13.13;81.03;101560.47;684954;28;1075;-76
2023/07/18 01:16:36;;;;;;;10.00;7.10;;;;;;;13.11;81.05;101557.81;685036;28;1610;-76
2023/07/18 01:16:57;;;;;;;9.50;7.35;;;;;;;13.14;81.07;101565.75;690326;28;1108;-77
2023/07/18 01:17:20;;;;;;;11.32;7.50;;;;;;;13.21;80.99;101577.31;687606;28;1383;-77
2023/07/18 01:17:45;;;;;;;13.18;7.78;;;;;;;13.21;80.90;101571.19;687615;28;917;-76
2023/07/18 01:18:07;;;;;;;12.70;7.68;;;;;;;13.12;80.87;101562.22;682284;28;1448;-77
2023/07/18 01:18:27;;;;;;;12.35;7.35;;;;;;;13.15;80.98;101571.91;687591;28;1030;-76
2023/07/18 01:18:48;;;;;;;12.20;7.05;;;;;;;13.13;80.96;101566.59;682445;29;962;-76
2023/07/18 01:19:12;;;;;;;14.15;7.63;;;;;;;13.09;80.98;101569.09;682429;28;1081;-76
2023/07/18 01:19:35;;;;;;;12.52;7.80;;;;;;;13.09;81.02;101559.47;679674;29;1044;-76
2023/07/18 01:19:57;;;;;;;11.23;7.50;;;;;;;13.07;80.68;101558.53;687792;28;1002;-76
2023/07/18 01:20:23;;;;;;;9.88;6.60;;;;;;;13.13;80.70;101577.09;682631;28;1429;-76
2023/07/18 01:20:45;;;;;;;11.15;6.50;;;;;;;13.13;80.82;101582.31;685104;28;886;-76
2023/07/18 01:21:11;;;;;;;12.20;6.70;;;;;;;13.04;80.74;101563.72;682329;28;1018;-76
2023/07/18 01:21:32;;;;;;;11.68;6.40;;;;;;;13.03;80.88;101567.13;687567;28;1103;-76
2023/07/18 01:21:53;;;;;;;11.43;6.40;;;;;;;13.00;80.64;101564.44;684903;28;1127;-76
2023/07/18 01:22:13;;;;;;;11.40;6.28;;;;;;;12.99;80.79;101562.66;687530;28;1120;-76
2023/07/18 01:22:35;;;;;;;12.00;6.43;;;;;;;13.01;81.02;101564.50;687520;28;1091;-76
2023/07/18 01:22:58;;;;;;;12.13;6.50;;;;;;;13.01;80.75;101567.13;685080;28;1001;-76
2023/07/18 01:23:21;;;;;;;12.43;6.60;;;;;;;12.99;80.89;101560.03;682442;28;1229;-76
2023/07/18 01:23:41;;;;;;;12.38;6.80;;;;;;;13.04;80.83;101562.81;682364;29;1010;-77
2023/07/18 01:24:02;;;;;;;11.68;6.65;;;;;;;13.06;80.71;101575.13;687544;28;1150;-76
2023/07/18 01:24:23;;;;;;;12.52;6.70;;;;;;;13.02;80.82;101565.38;687556;28;1048;-76
2023/07/18 01:24:44;;;;;;;12.10;6.73;;;;;;;13.00;80.95;101562.72;684955;28;1164;-76
2023/07/18 01:25:05;;;;;;;13.27;7.07;;;;;;;13.06;80.54;101576.84;684884;28;1418;-77
2023/07/18 01:25:27;;;;;;;12.73;6.90;;;;;;;12.98;80.67;101561.75;687003;28;1268;-76
2023/07/18 01:25:48;;;;;;;12.23;6.68;;;;;;;13.07;80.62;101582.13;679120;29;1088;-76
2023/07/18 01:26:09;;;;;;;11.27;6.43;;;;;;;12.98;80.92;101560.88;682319;29;1050;-77
2023/07/18 01:26:29;;;;;;;11.35;6.78;;;;;;;13.00;80.65;101567.97;684966;28;1172;-76
2023/07/18 01:26:52;;;;;;;12.10;7.47;;;;;;;13.00;80.97;101569.69;684968;28;1228;-76
2023/07/18 01:27:13;;;;;;;12.45;7.70;;;;;;;13.07;80.93;101582.13;684932;28;1146;-76
2023/07/18 01:27:36;;;;;;;11.03;7.00;;;;;;;13.00;80.73;101567.97;684810;28;1187;-76
2023/07/18 01:27:59;;;;;;;12.60;6.50;;;;;;;13.06;80.61;101580.34;684992;28;1021;-76
2023/07/18 01:28:21;;;;;;;12.02;6.50;;;;;;;13.01;80.72;101577.59;682309;28;1100;-77
2023/07/18 01:28:42;;;;;;;13.17;6.70;;;;;;;13.00;80.81;101572.31;687672;28;1174;-76
2023/07/18 01:29:04;;;;;;;11.43;6.63;;;;;;;12.95;80.93;101560.78;687598;28;1425;-76
2023/07/18 01:29:25;;;;;;;12.50;6.97;;;;;;;13.01;80.85;101574.06;682770;28;1073;-76
2023/07/18 01:29:46;;;;;;;12.02;7.10;;;;;;;13.03;80.60;101575.00;679807;28;1185;-76
2023/07/18 01:30:33;;;;;;;11.93;7.25;;;;;;;13.13;80.56;101587.56;687591;28;1392;-76
2023/07/18 01:30:54;;;;;;;12.18;7.60;;;;;;;13.10;80.50;101584.84;685096;28;867;-76
2023/07/18 01:31:14;;;;;;;11.85;6.85;;;;;;;13.00;80.42;101569.69;684800;28;1211;-76
2023/07/18 01:31:35;;;;;;;14.23;6.70;;;;;;;13.04;80.32;101568.94;679068;29;1157;-75
2023/07/18 01:31:57;;;;;;;13.50;6.55;;;;;;;13.01;80.33;101579.31;679719;29;974;-75
2023/07/18 01:32:17;;;;;;;12.00;6.60;;;;;;;12.96;80.45;101566.06;682567;28;1141;-77
2023/07/18 01:32:41;;;;;;;12.27;7.15;;;;;;;12.99;80.54;101571.44;680236;29;869;-76
2023/07/18 01:33:02;;;;;;;14.07;7.28;;;;;;;13.01;80.55;101574.97;685490;28;980;-76
2023/07/18 01:33:24;;;;;;;13.45;7.03;;;;;;;13.09;80.63;101588.28;685160;28;1288;-77
2023/07/18 01:33:46;;;;;;;12.05;7.00;;;;;;;13.03;80.70;101577.63;682843;28;1160;-76
2023/07/18 01:34:08;;;;;;;10.48;7.05;;;;;;;13.02;80.35;101579.38;682784;28;1287;-77
2023/07/18 01:34:28;;;;;;;11.13;7.40;;;;;;;13.04;80.71;101589.91;680049;28;1133;-76
2023/07/18 01:34:50;;;;;;;11.73;7.35;;;;;;;13.02;80.61;101575.84;682915;28;961;-77
2023/07/18 01:35:11;;;;;;;10.93;6.90;;;;;;;13.01;80.59;101574.06;680758;28;1239;-76
2023/07/18 01:35:31;;;;;;;11.00;6.87;;;;;;;12.98;80.69;101563.50;688227;28;1084;-76
2023/07/18 01:35:52;;;;;;;11.32;6.85;;;;;;;13.03;80.68;101580.25;690735;28;775;-76
2023/07/18 01:36:13;;;;;;;12.63;6.97;;;;;;;12.99;80.41;101570.53;685495;28;1150;-76
2023/07/18 01:36:33;;;;;;;11.90;7.10;;;;;;;13.07;80.45;101583.84;682774;28;1118;-77
2023/07/18 01:36:54;;;;;;;12.50;7.10;;;;;;;13.00;80.45;101573.19;682553;29;975;-76
2023/07/18 01:37:15;;;;;;;13.07;7.25;;;;;;;12.94;80.44;101567.75;684147;28;1199;-76
2023/07/18 01:37:37;;;;;;;12.88;7.03;;;;;;;13.04;80.54;101578.53;685468;28;1110;-76
2023/07/18 01:37:58;;;;;;;11.18;6.70;;;;;;;13.01;80.61;101579.31;688207;28;1363;-75
2023/07/18 01:38:19;;;;;;;9.10;6.40;;;;;;;12.96;80.34;101571.31;690992;28;1218;-76
2023/07/18 01:38:39;;;;;;;8.98;6.60;;;;;;;13.01;80.48;101579.31;685570;28;974;-77
2023/07/18 01:39:00;;;;;;;9.73;6.73;;;;;;;12.96;80.27;101570.44;688170;28;1141;-76
2023/07/18 01:39:21;;;;;;;10.63;7.00;;;;;;;13.02;80.52;101575.84;688054;28;1041;-76
2023/07/18 01:39:43;;;;;;;11.30;6.90;;;;;;;12.98;80.31;101574.88;688135;28;873;-76
2023/07/18 01:40:24;;;;;;;10.55;6.82;;;;;;;13.08;80.76;101585.66;688181;28;949;-77
2023/07/18 01:40:45;;;;;;;11.60;7.03;;;;;;;12.97;80.68;101564.34;685663;28;1037;-76
2023/07/18 01:41:07;;;;;;;14.63;8.02;;;;;;;12.98;80.52;101564.38;682617;29;1326;-77
2023/07/18 01:41:29;;;;;;;12.95;7.90;;;;;;;12.96;80.76;101560.84;682662;28;1275;-76
2023/07/18 01:41:52;;;;;;;12.48;7.53;;;;;;;13.04;80.57;101575.91;680495;28;1297;-76
2023/07/18 01:42:13;;;;;;;12.23;6.90;;;;;;;12.95;80.67;101558.16;682687;28;1140;-76
2023/07/18 01:42:35;;;;;;;14.52;6.97;;;;;;;13.05;80.55;101575.06;680414;28;1223;-77
2023/07/18 01:42:57;;;;;;;14.82;7.10;;;;;;;12.93;80.50;101559.81;680154;28;1417;-76
2023/07/18 01:43:18;;;;;;;14.35;7.47;;;;;;;12.98;80.30;101563.50;682813;29;1265;-76